Time;durP1;ratioP1;P1;durP2;ratioP2;P2;SDS_P1;SDS_P2;PMS_P1;PMS_P2;Temp;Humidity;BMP_temperature;BMP_pressure;BME280_temperature;BME280_humidity;BME280_pressure;Samples;Min_cycle;Max_cycle;Signal;HPM_P1;HPM_P2
2022/01/11 00:01:09;;;;;;;9.78;5.80;;;;;;;-2.62;65.07;101248.91;1775842;80;21578;-69
2022/01/11 00:03:37;;;;;;;9.18;5.67;;;;;;;-2.61;65.06;101245.80;1775865;80;21023;-68
2022/01/11 00:06:28;;;;;;;11.08;6.28;;;;;;;-2.60;65.05;101253.97;1775893;80;21580;-70
2022/01/11 00:08:39;;;;;;;10.13;6.30;;;;;;;-2.62;65.09;101259.86;1795007;79;21567;-69
2022/01/11 00:11:05;;;;;;;11.28;6.10;;;;;;;-2.62;65.15;101251.52;1798638;79;21008;-70
2022/01/11 00:13:35;;;;;;;10.30;6.30;;;;;;;-2.63;65.13;101253.81;1798872;79;21031;-70
2022/01/11 00:16:04;;;;;;;9.68;5.55;;;;;;;-2.61;65.12;101259.69;1799044;79;26889;-70
2022/01/11 00:18:31;;;;;;;10.63;5.75;;;;;;;-2.63;64.99;101266.07;1798913;79;21043;-70
2022/01/11 00:20:58;;;;;;;10.15;5.35;;;;;;;-2.62;64.91;101265.09;1799009;79;21116;-69
2022/01/11 00:25:53;;;;;;;10.40;5.85;;;;;;;-2.59;64.63;101268.70;1799233;79;21076;-70
2022/01/11 00:28:20;;;;;;;9.33;5.35;;;;;;;-2.58;64.52;101272.14;1798273;79;21048;-70
2022/01/11 00:30:50;;;;;;;8.75;5.15;;;;;;;-2.58;64.32;101265.59;1797521;79;20968;-68
2022/01/11 00:33:22;;;;;;;9.10;5.03;;;;;;;-2.61;63.88;101271.95;1798224;79;21036;-70
2022/01/11 00:35:56;;;;;;;7.47;4.03;;;;;;;-2.64;63.33;101277.48;1797996;79;21455;-70
2022/01/11 00:38:18;;;;;;;8.88;5.15;;;;;;;-2.67;62.51;101266.84;1797464;79;21046;-69
2022/01/11 00:40:53;;;;;;;8.40;4.95;;;;;;;-2.71;62.48;101273.35;1776229;80;21133;-69
2022/01/11 00:43:22;;;;;;;8.23;4.55;;;;;;;-2.69;62.51;101275.34;1798677;79;21011;-70
2022/01/11 00:45:52;;;;;;;8.98;4.83;;;;;;;-2.70;62.66;101276.32;1798688;79;21115;-69
2022/01/11 00:48:19;;;;;;;10.43;5.45;;;;;;;-2.72;62.62;101275.64;1798950;79;20936;-69
2022/01/11 00:50:47;;;;;;;9.60;5.70;;;;;;;-2.75;62.55;101283.78;1798613;79;21015;-69
2022/01/11 00:53:13;;;;;;;8.90;4.90;;;;;;;-2.76;62.66;101282.16;1798888;79;21502;-69
2022/01/11 00:55:40;;;;;;;10.18;4.45;;;;;;;-2.71;62.68;101289.53;1798631;79;21498;-69
2022/01/11 00:58:07;;;;;;;11.88;5.58;;;;;;;-2.72;62.66;101282.17;1798911;79;21407;-69
2022/01/11 01:00:36;;;;;;;8.08;5.00;;;;;;;-2.68;62.83;101284.81;1798500;79;21011;-70
2022/01/11 01:03:03;;;;;;;9.25;5.62;;;;;;;-2.67;62.96;101286.45;1798618;79;21527;-69
2022/01/11 01:05:30;;;;;;;13.13;6.22;;;;;;;-2.68;63.10;101286.12;1798727;79;21482;-69
2022/01/11 01:08:03;;;;;;;9.28;5.17;;;;;;;-2.70;63.28;101284.16;1798669;79;21511;-69
2022/01/11 01:10:45;;;;;;;8.43;4.80;;;;;;;-2.74;63.00;101291.14;1798493;79;21117;-69
2022/01/11 01:13:21;;;;;;;10.20;5.12;;;;;;;-2.75;62.86;101290.33;1798759;79;21078;-69
2022/01/11 01:15:51;;;;;;;8.20;4.50;;;;;;;-2.75;62.68;101294.73;1798423;79;20937;-70
2022/01/11 01:18:23;;;;;;;9.18;4.90;;;;;;;-2.77;62.23;101287.03;1797831;79;21059;-69
2022/01/11 01:20:51;;;;;;;10.38;5.22;;;;;;;-2.77;62.29;101294.87;1795943;78;21023;-69
2022/01/11 01:23:19;;;;;;;11.38;5.03;;;;;;;-2.80;62.25;101305.63;1793444;79;21103;-70
2022/01/11 01:25:46;;;;;;;7.75;4.53;;;;;;;-2.85;62.38;101304.78;1740673;79;20949;-70
2022/01/11 01:28:13;;;;;;;9.53;5.03;;;;;;;-2.85;62.58;101302.66;1795023;79;21575;-70
2022/01/11 01:30:39;;;;;;;9.85;5.50;;;;;;;-2.88;62.37;101301.16;1798971;79;21571;-69
2022/01/11 01:33:06;;;;;;;9.60;5.05;;;;;;;-2.86;62.34;101306.26;1813521;78;21416;-70
2022/01/11 01:35:39;;;;;;;8.35;5.30;;;;;;;-2.85;62.45;101300.87;1831227;78;21978;-69
2022/01/11 01:38:01;;;;;;;9.63;4.78;;;;;;;-2.81;62.61;101303.18;1816339;78;20945;-70
2022/01/11 01:40:35;;;;;;;9.25;5.08;;;;;;;-2.82;62.62;101307.59;1798721;79;21098;-69
2022/01/11 01:42:56;;;;;;;9.10;5.08;;;;;;;-2.86;62.75;101306.26;1797702;79;21290;-69
2022/01/11 01:45:24;;;;;;;9.83;5.10;;;;;;;-2.86;62.73;101307.08;1798601;79;21121;-69
2022/01/11 01:47:56;;;;;;;8.65;4.87;;;;;;;-2.86;62.73;101307.08;1797628;79;21170;-69
2022/01/11 01:50:19;;;;;;;8.05;4.35;;;;;;;-2.83;62.76;101308.55;1797930;79;21629;-70
2022/01/11 01:52:46;;;;;;;9.53;4.75;;;;;;;-2.80;62.53;101317.39;1798675;79;20996;-70
2022/01/11 01:55:13;;;;;;;7.87;4.65;;;;;;;-2.79;62.48;101309.91;1798502;79;20968;-70
2022/01/11 01:57:40;;;;;;;8.93;5.00;;;;;;;-2.76;62.32;101308.76;1798747;79;21038;-70
2022/01/11 02:00:12;;;;;;;7.90;4.58;;;;;;;-2.74;62.21;101312.88;1798490;79;21590;-70
2022/01/11 02:02:39;;;;;;;7.28;4.53;;;;;;;-2.75;62.17;101303.40;1797474;79;20992;-70
2022/01/11 02:05:06;;;;;;;9.28;4.75;;;;;;;-2.73;62.21;101311.92;1798506;79;21066;-70
2022/01/11 02:07:35;;;;;;;9.05;4.97;;;;;;;-2.73;62.34;101317.16;1798502;79;21004;-69
2022/01/11 02:10:02;;;;;;;6.50;4.53;;;;;;;-2.75;62.43;101317.78;1798421;79;20976;-69
2022/01/11 02:12:29;;;;;;;10.85;5.20;;;;;;;-2.73;62.57;101315.00;1798624;79;21145;-69
2022/01/11 02:14:56;;;;;;;8.50;5.28;;;;;;;-2.76;62.36;101319.22;1811914;78;21007;-69
2022/01/11 02:17:29;;;;;;;9.95;5.03;;;;;;;-2.76;62.36;101319.22;1831368;78;20936;-69
2022/01/11 02:19:56;;;;;;;7.17;4.20;;;;;;;-2.77;62.59;101326.24;1831488;78;20980;-69
2022/01/11 02:22:24;;;;;;;9.93;5.47;;;;;;;-2.78;62.62;101319.38;1831256;78;21520;-69
2022/01/11 02:24:52;;;;;;;9.03;5.53;;;;;;;-2.79;62.74;101323.47;1831547;78;21123;-69
2022/01/11 02:27:20;;;;;;;8.68;5.12;;;;;;;-2.80;62.82;101327.85;1784536;78;21109;-69
2022/01/11 02:29:47;;;;;;;9.43;5.42;;;;;;;-2.82;62.91;101323.77;1738013;82;21004;-70
2022/01/11 02:32:14;;;;;;;9.48;5.35;;;;;;;-2.83;62.99;101332.07;1737778;82;21117;-69
2022/01/11 02:34:42;;;;;;;9.53;5.22;;;;;;;-2.82;63.03;101338.15;1727922;79;21029;-70
2022/01/11 02:37:10;;;;;;;8.68;4.72;;;;;;;-2.84;63.02;101330.44;1760664;81;21265;-70
2022/01/11 02:39:40;;;;;;;8.13;5.08;;;;;;;-2.83;63.07;101330.77;1759576;81;21043;-69
2022/01/11 02:42:08;;;;;;;9.45;5.17;;;;;;;-2.82;63.20;101327.69;1759202;81;20973;-69
2022/01/11 02:44:38;;;;;;;9.50;5.22;;;;;;;-2.86;63.23;101325.37;1774233;79;21321;-69
2022/01/11 02:47:05;;;;;;;7.45;4.42;;;;;;;-2.87;63.22;101321.59;1776559;79;21028;-69
2022/01/11 02:49:33;;;;;;;9.28;5.20;;;;;;;-2.88;63.21;101327.30;1797708;79;21070;-69
2022/01/11 02:52:11;;;;;;;8.08;4.75;;;;;;;-2.89;63.27;101328.28;1798342;79;21028;-70
2022/01/11 02:54:40;;;;;;;8.28;4.50;;;;;;;-2.90;63.35;101333.64;1798815;79;20969;-70
2022/01/11 02:57:09;;;;;;;8.80;5.28;;;;;;;-2.93;63.48;101327.41;1794332;79;21058;-70
2022/01/11 02:59:36;;;;;;;8.28;5.20;;;;;;;-2.95;63.54;101329.37;1790074;79;20940;-69
2022/01/11 03:02:03;;;;;;;8.63;5.20;;;;;;;-2.95;63.65;101328.06;1795238;79;21164;-69
2022/01/11 03:04:32;;;;;;;9.30;5.10;;;;;;;-2.95;63.73;101328.06;1798822;79;20954;-68
2022/01/11 03:06:59;;;;;;;9.35;5.35;;;;;;;-2.94;63.84;101341.46;1797417;79;21059;-69
2022/01/11 03:09:33;;;;;;;9.58;5.20;;;;;;;-2.94;63.96;101341.46;1798928;79;20977;-69
2022/01/11 03:11:56;;;;;;;8.75;5.22;;;;;;;-2.97;63.98;101339.14;1797858;79;20988;-70
2022/01/11 03:14:23;;;;;;;8.38;4.97;;;;;;;-2.97;64.09;101344.38;1798968;78;21067;-68
2022/01/11 03:16:50;;;;;;;10.75;5.00;;;;;;;-2.99;64.16;101338.48;1796963;79;20977;-69
2022/01/11 03:19:16;;;;;;;9.78;5.15;;;;;;;-3.02;64.25;101347.44;1785733;79;21519;-70
2022/01/11 03:21:43;;;;;;;9.93;5.47;;;;;;;-3.04;64.24;101339.41;1797285;79;21522;-69
2022/01/11 03:24:11;;;;;;;11.60;5.78;;;;;;;-3.07;64.24;101349.17;1798801;79;20976;-70
2022/01/11 03:26:38;;;;;;;10.03;5.20;;;;;;;-3.08;64.30;101347.54;1798846;79;21154;-69
2022/01/11 03:29:04;;;;;;;7.95;4.30;;;;;;;-3.08;64.37;101348.84;1798602;79;21043;-69
2022/01/11 03:31:31;;;;;;;8.38;4.83;;;;;;;-3.05;64.29;101353.45;1798216;79;21066;-70
2022/01/11 03:33:58;;;;;;;9.05;4.65;;;;;;;-3.05;64.09;101347.73;1798750;79;21545;-70
2022/01/11 03:36:24;;;;;;;7.15;4.12;;;;;;;-3.03;63.98;101373.70;1799090;79;21475;-69
2022/01/11 03:38:51;;;;;;;8.60;4.37;;;;;;;-3.05;63.90;101351.66;1798562;79;22132;-69
2022/01/11 03:41:17;;;;;;;8.40;4.58;;;;;;;-3.02;63.97;101353.97;1799031;79;20924;-69
2022/01/11 03:43:44;;;;;;;7.87;4.40;;;;;;;-3.02;63.98;101357.89;1798673;79;21000;-69
2022/01/11 03:46:12;;;;;;;8.55;5.05;;;;;;;-2.99;64.00;101358.09;1798438;79;20972;-69
2022/01/11 03:48:39;;;;;;;8.45;4.90;;;;;;;-3.03;63.97;101361.95;1798754;79;20988;-69
2022/01/11 03:51:05;;;;;;;8.08;4.70;;;;;;;-3.03;64.00;101370.60;1812926;78;21479;-69
2022/01/11 03:53:52;;;;;;;7.95;4.40;;;;;;;-3.02;64.04;101368.84;1808533;78;21102;-69
2022/01/11 03:56:21;;;;;;;9.80;5.10;;;;;;;-2.99;64.01;101377.69;1795793;79;21471;-69
2022/01/11 03:58:42;;;;;;;9.55;4.55;;;;;;;-3.00;64.01;101379.95;1796243;79;20979;-70
2022/01/11 04:01:08;;;;;;;8.48;4.72;;;;;;;-2.99;64.02;101381.61;1798954;79;21043;-70
2022/01/11 04:03:37;;;;;;;8.05;4.85;;;;;;;-2.97;63.98;101382.27;1798114;79;21522;-70
2022/01/11 04:06:04;;;;;;;7.05;4.47;;;;;;;-2.94;64.05;101381.97;1798511;79;20928;-70
2022/01/11 04:08:31;;;;;;;7.67;4.10;;;;;;;-2.90;64.08;101384.62;1798734;79;21451;-70
2022/01/11 04:10:58;;;;;;;7.42;4.00;;;;;;;-2.88;64.08;101392.66;1798640;79;21554;-70
2022/01/11 04:13:24;;;;;;;7.78;3.95;;;;;;;-2.91;64.09;101379.88;1798763;79;21144;-70
2022/01/11 04:15:51;;;;;;;7.25;4.47;;;;;;;-2.93;64.26;101383.61;1798559;79;20979;-70
2022/01/11 04:18:21;;;;;;;8.18;4.22;;;;;;;-2.94;64.38;101384.09;1798694;79;21032;-69
2022/01/11 04:20:48;;;;;;;10.35;4.53;;;;;;;-2.95;64.44;101386.38;1802899;79;21478;-69
2022/01/11 04:23:16;;;;;;;7.10;3.75;;;;;;;-2.94;64.60;101389.33;1798719;79;21055;-70
2022/01/11 04:25:44;;;;;;;6.62;4.08;;;;;;;-2.90;64.68;101391.16;1776878;79;21030;-70
2022/01/11 04:28:14;;;;;;;7.22;4.37;;;;;;;-2.87;64.72;101389.55;1798796;79;21125;-68
2022/01/11 04:30:42;;;;;;;8.78;5.12;;;;;;;-2.89;64.72;101392.33;1798565;79;21023;-69
2022/01/11 04:33:17;;;;;;;8.35;4.87;;;;;;;-2.88;64.86;101398.38;1776477;79;21070;-70
2022/01/11 04:35:52;;;;;;;9.13;4.50;;;;;;;-2.87;64.93;101394.30;1799018;79;21094;-70
2022/01/11 04:38:27;;;;;;;8.90;4.97;;;;;;;-2.81;65.00;101404.66;1798664;79;20944;-69
2022/01/11 04:40:54;;;;;;;9.43;4.67;;;;;;;-2.79;65.03;101401.41;1798694;79;21547;-69
2022/01/11 04:43:38;;;;;;;8.75;4.60;;;;;;;-2.72;65.11;101405.56;1798570;79;20992;-69
2022/01/11 04:46:21;;;;;;;9.18;5.08;;;;;;;-2.65;65.13;101403.99;1776833;79;21000;-69
2022/01/11 04:49:07;;;;;;;8.90;5.00;;;;;;;-2.63;65.11;101405.98;1798726;79;20932;-69
2022/01/11 04:51:36;;;;;;;8.80;5.28;;;;;;;-2.60;65.10;101408.27;1777473;79;21066;-69
2022/01/11 04:54:12;;;;;;;8.78;4.90;;;;;;;-2.59;65.05;101406.02;1798958;79;21092;-69
2022/01/11 04:56:45;;;;;;;8.15;5.05;;;;;;;-2.57;65.04;101409.77;1798540;79;21019;-69
2022/01/11 04:59:12;;;;;;;9.10;5.05;;;;;;;-2.58;65.08;101415.49;1798632;79;21551;-69
2022/01/11 05:01:48;;;;;;;9.10;4.90;;;;;;;-2.57;65.12;101417.62;1798876;79;21082;-68
2022/01/11 05:04:19;;;;;;;9.28;5.33;;;;;;;-2.57;65.15;101417.13;1798751;79;20987;-70
2022/01/11 05:06:55;;;;;;;8.00;4.67;;;;;;;-2.56;65.25;101419.28;1798397;79;21537;-70
2022/01/11 05:09:26;;;;;;;8.25;5.33;;;;;;;-2.54;65.32;101419.45;1799058;79;21047;-69
2022/01/11 05:11:55;;;;;;;8.00;4.62;;;;;;;-2.53;65.34;101426.80;1798639;79;21475;-69
2022/01/11 05:14:24;;;;;;;7.55;4.47;;;;;;;-2.55;65.43;101421.73;1798580;79;21126;-69
2022/01/11 05:17:01;;;;;;;9.38;5.85;;;;;;;-2.53;65.54;101430.27;1797487;79;21468;-69
2022/01/11 05:19:35;;;;;;;9.50;4.90;;;;;;;-2.54;65.65;101427.78;1798638;79;21212;-69
2022/01/11 05:22:13;;;;;;;9.30;4.45;;;;;;;-2.51;65.85;101434.84;1798781;79;21028;-69
2022/01/11 05:24:40;;;;;;;8.48;5.42;;;;;;;-2.46;65.96;101434.41;1798330;79;21562;-69
2022/01/11 05:27:09;;;;;;;9.03;5.10;;;;;;;-2.46;66.11;101445.70;1798664;79;20961;-69
2022/01/11 05:29:43;;;;;;;9.63;5.20;;;;;;;-2.46;66.26;101454.03;1797103;79;21509;-68
2022/01/11 05:32:22;;;;;;;10.82;6.00;;;;;;;-2.46;66.42;101464.00;1773226;79;21151;-69
2022/01/11 05:34:59;;;;;;;11.05;5.83;;;;;;;-2.47;66.54;101462.83;1802536;79;21000;-70
2022/01/11 05:37:39;;;;;;;11.93;6.15;;;;;;;-2.46;66.65;101467.11;1798675;79;20949;-69
2022/01/11 05:40:20;;;;;;;9.20;6.05;;;;;;;-2.44;66.77;101469.08;1798900;79;21066;-69
2022/01/11 05:42:58;;;;;;;9.28;5.53;;;;;;;-2.44;66.90;101482.16;1798304;79;22350;-69
2022/01/11 05:45:31;;;;;;;7.80;4.03;;;;;;;-2.44;66.90;101479.54;1798755;79;21110;-69
2022/01/11 05:48:06;;;;;;;7.62;4.45;;;;;;;-2.45;66.83;101481.83;1798420;78;21000;-69
2022/01/11 05:50:43;;;;;;;7.80;4.22;;;;;;;-2.49;66.63;101534.11;1796886;79;21028;-69
2022/01/11 05:53:19;;;;;;;7.55;4.10;;;;;;;-2.54;66.28;101485.33;1796852;79;21024;-69
2022/01/11 05:55:55;;;;;;;6.28;3.33;;;;;;;-2.56;66.06;101489.41;1795263;79;21082;-68
2022/01/11 05:58:30;;;;;;;7.20;3.80;;;;;;;-2.57;65.96;101499.52;1797007;79;21133;-70
2022/01/11 06:01:05;;;;;;;7.12;3.62;;;;;;;-2.56;65.88;101505.59;1796970;79;20989;-70
2022/01/11 06:03:45;;;;;;;5.35;2.92;;;;;;;-2.54;65.87;101497.09;1796717;79;21024;-70
2022/01/11 06:06:25;;;;;;;6.97;3.20;;;;;;;-2.54;65.72;101501.02;1796749;79;20992;-69
2022/01/11 06:09:03;;;;;;;6.60;3.42;;;;;;;-2.57;65.29;101502.13;1796970;79;20988;-69
2022/01/11 06:11:40;;;;;;;6.50;3.25;;;;;;;-2.52;65.32;101510.38;1797144;79;21532;-69
2022/01/11 06:14:20;;;;;;;6.87;3.77;;;;;;;-2.51;65.24;101507.27;1796897;79;21051;-69
